Time;durP1;ratioP1;P1;durP2;ratioP2;P2;SDS_P1;SDS_P2;PMS_P1;PMS_P2;Temp;Humidity;BMP_temperature;BMP_pressure;BME280_temperature;BME280_humidity;BME280_pressure;Samples;Min_cycle;Max_cycle;Signal;HPM_P1;HPM_P2
2022/08/14 00:02:01;;;;;;;4.95;4.45;;;22.00;70.80;;;;;;624982;230;26533;-71
2022/08/14 00:04:29;;;;;;;4.55;4.22;;;21.90;71.40;;;;;;624970;230;26874;-71
2022/08/14 00:06:57;;;;;;;4.62;4.20;;;21.90;70.80;;;;;;624962;230;26530;-71
2022/08/14 00:09:25;;;;;;;4.12;3.83;;;22.00;71.10;;;;;;625018;230;26528;-71
2022/08/14 00:11:53;;;;;;;4.53;3.95;;;21.90;71.00;;;;;;626343;228;26595;-69
2022/08/14 00:14:19;;;;;;;4.25;3.95;;;22.00;71.90;;;;;;626460;229;26586;-70
2022/08/14 00:16:47;;;;;;;4.37;4.07;;;21.90;71.60;;;;;;626252;230;26512;-70
2022/08/14 00:19:14;;;;;;;4.45;4.12;;;21.90;71.80;;;;;;626176;230;26793;-70
2022/08/14 00:21:41;;;;;;;4.72;4.07;;;21.90;72.00;;;;;;625873;230;26557;-70
2022/08/14 00:24:09;;;;;;;4.10;3.70;;;21.90;72.90;;;;;;625900;229;26627;-70
2022/08/14 00:26:37;;;;;;;5.30;3.97;;;21.80;73.70;;;;;;625855;230;26558;-70
2022/08/14 00:29:05;;;;;;;4.57;4.12;;;21.70;73.00;;;;;;625495;230;26608;-70
2022/08/14 00:31:33;;;;;;;4.50;4.20;;;21.70;73.00;;;;;;625307;229;26554;-70
2022/08/14 00:34:00;;;;;;;5.10;4.00;;;21.70;73.00;;;;;;625291;230;26576;-70
2022/08/14 00:36:28;;;;;;;4.35;3.95;;;21.70;73.60;;;;;;625248;229;26530;-70
2022/08/14 00:38:54;;;;;;;5.22;4.53;;;21.60;75.30;;;;;;625296;230;26862;-70
2022/08/14 00:41:21;;;;;;;4.50;4.18;;;21.60;75.70;;;;;;625309;229;26526;-70
2022/08/14 00:43:49;;;;;;;4.62;4.00;;;21.50;74.60;;;;;;625352;229;26802;-70
2022/08/14 00:46:16;;;;;;;4.40;4.10;;;21.50;75.70;;;;;;625315;230;26506;-70
2022/08/14 00:48:44;;;;;;;4.72;4.32;;;21.50;78.30;;;;;;625009;230;26790;-70
2022/08/14 00:51:11;;;;;;;5.10;4.60;;;21.50;76.90;;;;;;624999;230;26550;-70
2022/08/14 00:53:38;;;;;;;4.78;4.47;;;21.40;76.80;;;;;;625001;230;27442;-71
2022/08/14 00:56:06;;;;;;;3.90;3.62;;;21.40;77.20;;;;;;624983;230;26522;-70
2022/08/14 00:58:33;;;;;;;5.28;4.20;;;21.40;76.80;;;;;;624917;230;26549;-70
2022/08/14 01:01:02;;;;;;;5.03;4.07;;;21.40;78.70;;;;;;624987;230;26772;-70
2022/08/14 01:03:29;;;;;;;4.55;4.18;;;21.40;78.50;;;;;;624795;230;26577;-70
2022/08/14 01:05:57;;;;;;;4.85;4.30;;;21.40;78.50;;;;;;624945;230;26526;-71
2022/08/14 01:08:25;;;;;;;4.43;4.03;;;21.40;78.60;;;;;;624908;230;26509;-70
2022/08/14 01:10:52;;;;;;;5.05;4.65;;;21.40;79.60;;;;;;624827;230;26532;-70
2022/08/14 01:13:22;;;;;;;5.18;4.68;;;21.30;80.40;;;;;;624985;230;26563;-70
2022/08/14 01:15:49;;;;;;;4.65;4.25;;;21.30;80.40;;;;;;624788;230;26539;-70
2022/08/14 01:23:22;;;;;;;4.30;3.90;;;21.40;81.20;;;;;;626304;228;26797;-70
2022/08/14 01:25:49;;;;;;;4.43;4.07;;;21.40;80.40;;;;;;626255;230;26588;-71
2022/08/14 01:28:17;;;;;;;5.18;4.78;;;21.50;81.30;;;;;;625954;223;26545;-70
2022/08/14 01:30:44;;;;;;;5.60;4.87;;;21.50;80.70;;;;;;625873;229;26785;-70
2022/08/14 01:33:11;;;;;;;5.30;4.75;;;21.50;81.80;;;;;;625626;229;26612;-70
2022/08/14 01:35:45;;;;;;;4.37;4.07;;;21.60;79.10;;;;;;625619;229;26786;-70
2022/08/14 01:38:06;;;;;;;4.45;4.15;;;21.60;79.00;;;;;;624988;230;26574;-71
2022/08/14 01:40:33;;;;;;;5.78;4.47;;;21.70;79.00;;;;;;625501;229;26825;-71
2022/08/14 01:43:01;;;;;;;5.30;4.80;;;21.70;79.50;;;;;;625263;230;26529;-70
2022/08/14 01:45:27;;;;;;;4.97;4.62;;;21.70;79.50;;;;;;625298;230;26768;-70
2022/08/14 01:47:56;;;;;;;5.07;4.57;;;21.80;78.80;;;;;;625325;230;26778;-70
2022/08/14 01:50:21;;;;;;;4.95;4.55;;;21.80;80.00;;;;;;625213;224;26541;-70
2022/08/14 01:52:49;;;;;;;6.03;4.30;;;21.80;80.00;;;;;;625335;230;26526;-70
2022/08/14 01:55:16;;;;;;;5.00;4.37;;;21.80;79.40;;;;;;625308;229;26571;-70
2022/08/14 01:57:43;;;;;;;5.28;4.80;;;21.80;77.90;;;;;;625121;230;26560;-70
2022/08/14 02:00:15;;;;;;;5.12;4.72;;;21.90;78.00;;;;;;624878;230;26800;-70
2022/08/14 02:02:39;;;;;;;4.90;4.50;;;21.90;77.50;;;;;;624774;230;26788;-70
2022/08/14 02:05:08;;;;;;;5.05;4.43;;;21.90;77.90;;;;;;625031;230;26573;-73
2022/08/14 02:07:36;;;;;;;4.95;4.53;;;21.90;77.70;;;;;;624897;224;26557;-73
2022/08/14 02:10:03;;;;;;;5.95;4.53;;;21.90;78.40;;;;;;624946;229;27196;-73
2022/08/14 02:12:30;;;;;;;5.07;4.50;;;21.90;78.80;;;;;;624932;230;27166;-73
2022/08/14 02:14:59;;;;;;;4.45;4.05;;;21.90;78.50;;;;;;624988;229;26551;-73
2022/08/14 02:17:26;;;;;;;4.97;4.57;;;21.90;78.00;;;;;;624929;230;26566;-73
2022/08/14 02:19:54;;;;;;;4.60;4.30;;;21.90;77.50;;;;;;625009;230;26508;-73
2022/08/14 02:22:22;;;;;;;5.55;4.55;;;21.90;77.40;;;;;;624947;229;26512;-73
2022/08/14 02:24:50;;;;;;;5.12;4.70;;;21.90;77.70;;;;;;625038;230;26563;-73
2022/08/14 02:27:17;;;;;;;4.87;4.55;;;21.90;78.10;;;;;;624976;230;26960;-73
2022/08/14 02:29:43;;;;;;;4.80;4.43;;;22.00;78.10;;;;;;625042;230;26557;-73
2022/08/14 02:32:10;;;;;;;4.45;4.15;;;21.90;77.50;;;;;;624971;230;26880;-73
2022/08/14 02:34:38;;;;;;;4.80;4.40;;;22.00;77.70;;;;;;626143;228;26552;-73
2022/08/14 02:37:05;;;;;;;5.32;4.90;;;22.00;77.70;;;;;;626349;230;26818;-73
2022/08/14 02:39:33;;;;;;;5.10;4.60;;;21.90;79.20;;;;;;625975;229;26511;-73
2022/08/14 02:42:00;;;;;;;4.68;4.30;;;21.90;79.30;;;;;;625864;230;26513;-73
2022/08/14 02:44:27;;;;;;;4.68;4.37;;;21.90;78.30;;;;;;625602;230;26618;-73
2022/08/14 02:46:56;;;;;;;4.70;4.40;;;21.90;78.10;;;;;;625636;230;26603;-72
2022/08/14 02:49:26;;;;;;;4.30;4.00;;;21.90;77.80;;;;;;625502;230;26827;-72
2022/08/14 02:51:52;;;;;;;5.55;4.45;;;21.90;77.10;;;;;;625312;230;26606;-72
2022/08/14 02:54:20;;;;;;;4.90;4.50;;;22.00;77.90;;;;;;625291;230;26810;-73
2022/08/14 02:56:46;;;;;;;4.70;4.28;;;21.90;78.40;;;;;;625533;230;26518;-73
2022/08/14 02:59:14;;;;;;;5.00;4.60;;;21.90;78.30;;;;;;625595;229;26773;-73
2022/08/14 03:01:41;;;;;;;5.03;4.60;;;21.90;78.80;;;;;;625455;230;26513;-72
2022/08/14 03:04:09;;;;;;;4.78;4.47;;;21.90;78.80;;;;;;625567;230;26532;-72
2022/08/14 03:06:35;;;;;;;5.43;5.03;;;21.90;79.00;;;;;;625526;230;26748;-73
2022/08/14 03:09:02;;;;;;;4.75;4.30;;;21.90;78.20;;;;;;625415;230;26526;-73
2022/08/14 03:11:30;;;;;;;5.05;4.65;;;21.90;78.30;;;;;;624976;229;26533;-73
2022/08/14 03:13:58;;;;;;;5.87;4.80;;;21.90;77.20;;;;;;624948;230;26548;-73
2022/08/14 03:16:25;;;;;;;8.95;4.72;;;21.90;77.20;;;;;;624962;230;26539;-72
2022/08/14 03:18:53;;;;;;;4.47;4.07;;;21.90;78.60;;;;;;624890;228;26545;-72
2022/08/14 03:21:20;;;;;;;6.18;4.40;;;21.90;78.30;;;;;;624910;230;27204;-73
2022/08/14 03:23:48;;;;;;;4.65;4.35;;;21.90;78.10;;;;;;624966;230;26547;-73
2022/08/14 03:26:16;;;;;;;5.22;4.72;;;21.90;78.20;;;;;;624932;230;26545;-72
2022/08/14 03:28:43;;;;;;;4.85;4.45;;;21.90;80.00;;;;;;625170;230;26525;-72
2022/08/14 03:31:10;;;;;;;4.72;4.20;;;21.90;80.30;;;;;;625245;230;26516;-72
2022/08/14 03:33:38;;;;;;;5.50;5.10;;;21.90;78.70;;;;;;625298;230;26573;-73
2022/08/14 03:36:08;;;;;;;5.65;4.75;;;21.90;79.80;;;;;;625240;230;26782;-73
2022/08/14 03:38:32;;;;;;;5.55;5.10;;;21.90;79.60;;;;;;624830;230;26528;-73
2022/08/14 03:41:00;;;;;;;5.30;4.90;;;21.80;78.30;;;;;;625084;229;26523;-73
2022/08/14 03:43:28;;;;;;;4.90;4.53;;;21.80;79.00;;;;;;625066;229;26541;-74
2022/08/14 03:45:56;;;;;;;5.18;4.78;;;21.80;79.80;;;;;;625881;228;26603;-74
2022/08/14 03:48:23;;;;;;;5.75;5.15;;;21.80;79.70;;;;;;626373;229;26559;-74
2022/08/14 03:50:50;;;;;;;5.20;4.80;;;21.80;79.30;;;;;;626052;230;26554;-73
2022/08/14 03:53:18;;;;;;;4.95;4.55;;;21.80;81.70;;;;;;625901;230;27186;-73
2022/08/14 03:55:45;;;;;;;5.55;5.15;;;21.80;80.50;;;;;;625684;229;26542;-74
2022/08/14 03:58:14;;;;;;;5.57;5.07;;;21.80;81.20;;;;;;625626;229;26808;-74
2022/08/14 04:00:40;;;;;;;6.03;5.43;;;21.80;81.20;;;;;;625470;230;26833;-74
2022/08/14 04:03:07;;;;;;;6.10;5.57;;;21.80;81.20;;;;;;625555;229;26575;-74
2022/08/14 04:05:35;;;;;;;5.87;5.37;;;21.80;80.40;;;;;;625223;230;26769;-74
2022/08/14 04:08:02;;;;;;;5.32;4.82;;;21.80;83.10;;;;;;625326;230;26529;-74
2022/08/14 04:10:29;;;;;;;5.35;4.93;;;21.80;83.10;;;;;;625350;229;26517;-74
2022/08/14 04:12:58;;;;;;;6.85;5.32;;;21.80;83.70;;;;;;625287;230;26519;-74
2022/08/14 04:15:26;;;;;;;5.55;5.07;;;21.80;84.60;;;;;;625218;230;26526;-74
2022/08/14 04:17:53;;;;;;;5.07;4.70;;;21.80;84.60;;;;;;625334;230;26754;-74
2022/08/14 04:20:21;;;;;;;4.97;4.53;;;21.70;85.30;;;;;;625582;229;26521;-73
2022/08/14 04:22:50;;;;;;;5.72;5.28;;;21.70;85.30;;;;;;625311;230;26512;-74
2022/08/14 04:25:15;;;;;;;5.45;4.95;;;21.70;84.60;;;;;;625123;230;26541;-74
2022/08/14 04:27:42;;;;;;;4.78;4.37;;;21.70;82.50;;;;;;625210;230;26740;-73
2022/08/14 04:30:11;;;;;;;5.12;4.80;;;21.80;83.00;;;;;;624990;230;26543;-73
2022/08/14 04:32:38;;;;;;;5.12;4.57;;;21.80;84.20;;;;;;625008;230;26539;-74
2022/08/14 04:35:05;;;;;;;5.40;5.05;;;21.80;84.50;;;;;;625033;229;26769;-73
2022/08/14 04:45:13;;;;;;;5.80;5.30;;;21.90;84.30;;;;;;625018;230;26556;-74
2022/08/14 04:50:12;;;;;;;5.75;4.93;;;22.00;81.20;;;;;;625078;230;26517;-74
2022/08/14 04:52:39;;;;;;;5.60;5.00;;;22.10;81.00;;;;;;624960;229;26814;-74
2022/08/14 04:55:07;;;;;;;4.85;4.45;;;22.10;81.00;;;;;;624950;230;26608;-74
2022/08/14 04:57:34;;;;;;;5.43;4.80;;;22.20;81.70;;;;;;625915;228;26595;-74
2022/08/14 05:00:01;;;;;;;5.10;4.57;;;22.20;81.00;;;;;;626426;229;26540;-73
2022/08/14 05:02:29;;;;;;;5.60;5.00;;;22.30;79.90;;;;;;626100;230;26613;-74
2022/08/14 05:04:57;;;;;;;5.35;4.85;;;22.30;79.80;;;;;;625933;230;26578;-74
2022/08/14 05:07:25;;;;;;;5.22;4.72;;;22.40;80.20;;;;;;625705;230;26554;-73
2022/08/14 05:09:53;;;;;;;5.75;5.25;;;22.40;80.20;;;;;;625634;229;26791;-73
2022/08/14 05:12:20;;;;;;;5.97;5.37;;;22.40;81.90;;;;;;625591;230;26587;-72
2022/08/14 05:14:47;;;;;;;5.93;5.43;;;22.40;82.80;;;;;;625593;229;26852;-73
2022/08/14 05:17:14;;;;;;;5.47;4.97;;;22.50;81.80;;;;;;625282;230;26529;-73
2022/08/14 05:19:43;;;;;;;5.43;5.03;;;22.50;80.20;;;;;;625321;230;26783;-73
2022/08/14 05:22:09;;;;;;;5.20;4.80;;;22.50;80.30;;;;;;625222;230;26536;-73
2022/08/14 05:24:36;;;;;;;5.40;4.87;;;22.60;82.10;;;;;;625319;229;26783;-72
2022/08/14 05:27:04;;;;;;;5.05;4.65;;;22.60;80.90;;;;;;625338;230;26540;-73
2022/08/14 05:29:31;;;;;;;5.97;5.57;;;22.70;80.40;;;;;;625370;230;26536;-73
2022/08/14 05:31:59;;;;;;;6.00;5.20;;;22.90;79.70;;;;;;625363;230;26532;-73
2022/08/14 05:34:29;;;;;;;5.12;4.72;;;23.00;78.20;;;;;;624977;230;26561;-73
2022/08/14 05:36:55;;;;;;;5.25;4.82;;;23.10;77.20;;;;;;624713;230;26763;-73
2022/08/14 05:39:20;;;;;;;4.62;4.28;;;23.30;77.70;;;;;;624835;224;26521;-73
2022/08/14 05:41:47;;;;;;;5.37;4.97;;;23.40;77.50;;;;;;625064;229;26779;-73
2022/08/14 05:44:14;;;;;;;5.82;5.10;;;23.50;75.50;;;;;;624961;229;26560;-73
2022/08/14 05:46:41;;;;;;;5.40;5.03;;;23.50;76.00;;;;;;625017;230;26771;-73
2022/08/14 05:49:09;;;;;;;4.95;4.55;;;23.50;76.10;;;;;;625063;230;26525;-73
2022/08/14 05:51:36;;;;;;;5.95;5.37;;;23.50;76.80;;;;;;624862;230;26783;-73
2022/08/14 05:54:03;;;;;;;6.35;5.25;;;23.60;76.00;;;;;;624889;230;26526;-73
2022/08/14 05:56:30;;;;;;;6.00;5.37;;;23.60;74.60;;;;;;625069;230;26791;-73
2022/08/14 05:58:58;;;;;;;5.95;5.45;;;23.70;74.80;;;;;;625024;224;26545;-73
2022/08/14 06:01:25;;;;;;;5.82;5.25;;;23.80;72.60;;;;;;624920;229;26846;-73
2022/08/14 06:03:52;;;;;;;5.50;5.10;;;23.80;73.30;;;;;;624995;229;26627;-73
2022/08/14 06:06:19;;;;;;;5.72;5.32;;;24.00;73.50;;;;;;625024;230;26786;-73
2022/08/14 06:08:46;;;;;;;8.10;5.65;;;24.00;73.00;;;;;;625665;228;26548;-73
2022/08/14 06:11:13;;;;;;;6.00;5.50;;;24.20;72.10;;;;;;626502;229;26533;-73
2022/08/14 06:13:41;;;;;;;6.12;5.53;;;24.30;70.70;;;;;;626084;230;26552;-73
2022/08/14 06:16:08;;;;;;;7.18;5.55;;;24.40;69.40;;;;;;625952;229;26538;-73
2022/08/14 06:18:35;;;;;;;6.20;5.60;;;24.50;68.90;;;;;;625730;229;26734;-73
2022/08/14 06:21:02;;;;;;;6.20;5.70;;;24.60;69.40;;;;;;625571;230;26617;-73
2022/08/14 06:23:29;;;;;;;7.60;6.80;;;24.60;69.50;;;;;;625538;230;26807;-73
2022/08/14 06:25:57;;;;;;;8.43;6.30;;;24.70;69.70;;;;;;625587;230;26579;-73
2022/08/14 06:28:24;;;;;;;6.05;5.55;;;24.70;69.70;;;;;;625256;224;27212;-73
2022/08/14 06:30:51;;;;;;;6.43;5.80;;;24.70;69.70;;;;;;625170;230;26540;-73
2022/08/14 06:33:18;;;;;;;6.55;5.97;;;24.70;69.50;;;;;;625327;230;26817;-73
2022/08/14 06:35:45;;;;;;;6.32;5.72;;;24.80;69.40;;;;;;625187;230;26536;-73
2022/08/14 06:38:16;;;;;;;5.53;5.12;;;25.00;70.20;;;;;;625292;230;26540;-73
2022/08/14 06:40:43;;;;;;;7.22;6.10;;;25.00;70.20;;;;;;625237;229;26530;-73
2022/08/14 06:43:10;;;;;;;5.30;4.80;;;25.10;68.20;;;;;;625168;230;26801;-73
2022/08/14 06:45:38;;;;;;;6.43;5.80;;;25.20;69.00;;;;;;625163;224;26509;-73
2022/08/14 06:48:20;;;;;;;6.70;6.05;;;25.20;66.70;;;;;;624944;224;27195;-73
2022/08/14 06:50:47;;;;;;;6.35;5.85;;;25.30;67.60;;;;;;624807;230;26920;-73
2022/08/14 06:53:15;;;;;;;7.68;6.10;;;25.30;67.30;;;;;;624919;230;26821;-73
2022/08/14 06:55:42;;;;;;;6.28;5.68;;;25.10;67.20;;;;;;624948;230;26572;-71
2022/08/14 06:58:10;;;;;;;6.40;5.80;;;25.30;66.50;;;;;;624999;230;26529;-71
2022/08/14 07:00:38;;;;;;;5.03;4.70;;;25.30;66.80;;;;;;625224;230;26504;-73
2022/08/14 07:05:45;;;;;;;5.40;5.03;;;25.40;66.00;;;;;;625334;230;26513;-72
2022/08/14 07:08:17;;;;;;;5.87;5.43;;;25.50;65.50;;;;;;625119;230;26538;-72
2022/08/14 07:10:44;;;;;;;7.43;5.40;;;25.60;63.70;;;;;;624895;230;26540;-73
2022/08/14 07:13:12;;;;;;;6.30;5.80;;;25.70;63.50;;;;;;625284;230;26577;-73
2022/08/14 07:15:40;;;;;;;6.18;5.70;;;25.80;64.00;;;;;;625307;230;26786;-72
2022/08/14 07:18:07;;;;;;;6.03;5.53;;;25.70;63.30;;;;;;625143;230;26553;-74
2022/08/14 07:20:34;;;;;;;6.07;5.50;;;25.70;63.50;;;;;;626049;228;26805;-72
2022/08/14 07:23:02;;;;;;;6.22;5.72;;;25.70;63.60;;;;;;626706;229;26569;-72
2022/08/14 07:25:30;;;;;;;5.93;5.45;;;25.80;61.80;;;;;;626349;229;26535;-72
2022/08/14 07:27:58;;;;;;;8.07;6.15;;;25.90;62.40;;;;;;626201;230;26535;-72
2022/08/14 07:30:26;;;;;;;5.95;5.53;;;26.00;62.30;;;;;;625755;224;26543;-72
2022/08/14 07:32:54;;;;;;;6.15;5.65;;;26.00;63.00;;;;;;625618;229;26563;-73
2022/08/14 07:35:21;;;;;;;6.32;5.50;;;26.00;62.90;;;;;;625624;229;26568;-74
2022/08/14 07:37:48;;;;;;;10.93;6.35;;;26.00;62.40;;;;;;625593;230;26584;-75
2022/08/14 07:40:16;;;;;;;9.35;5.90;;;26.10;61.00;;;;;;625300;230;26513;-75
2022/08/14 07:42:43;;;;;;;9.48;5.60;;;26.10;60.30;;;;;;625258;230;26536;-75
2022/08/14 07:45:11;;;;;;;8.07;5.65;;;26.20;59.70;;;;;;625275;224;26835;-74
2022/08/14 07:47:38;;;;;;;6.55;5.95;;;26.40;59.10;;;;;;625227;224;26552;-74
2022/08/14 07:50:11;;;;;;;7.18;6.47;;;26.50;59.10;;;;;;625259;229;26540;-74
2022/08/14 07:52:39;;;;;;;5.53;5.12;;;26.50;59.00;;;;;;625342;229;26756;-74
2022/08/14 07:55:07;;;;;;;6.57;5.85;;;26.60;58.60;;;;;;625316;230;26538;-76
2022/08/14 07:57:37;;;;;;;11.02;6.40;;;26.80;58.20;;;;;;625013;230;26517;-75
2022/08/14 08:00:01;;;;;;;6.37;5.53;;;26.80;57.70;;;;;;624812;230;26521;-74
2022/08/14 08:02:29;;;;;;;6.07;5.57;;;26.90;56.80;;;;;;624970;230;26806;-75
2022/08/14 08:04:57;;;;;;;5.85;5.15;;;26.90;56.90;;;;;;624921;230;26567;-70
2022/08/14 08:07:25;;;;;;;6.85;5.82;;;27.00;57.20;;;;;;624877;230;26536;-70
2022/08/14 08:09:53;;;;;;;6.22;5.72;;;27.10;57.70;;;;;;624973;230;26558;-70
2022/08/14 08:12:20;;;;;;;6.55;5.68;;;27.10;57.30;;;;;;624929;230;27190;-70
2022/08/14 08:14:47;;;;;;;6.25;5.75;;;27.10;56.90;;;;;;624983;224;26561;-70
2022/08/14 08:17:15;;;;;;;6.15;5.55;;;27.20;56.70;;;;;;624979;230;26793;-70
2022/08/14 08:19:42;;;;;;;6.53;6.03;;;27.20;56.70;;;;;;626113;226;26579;-70
2022/08/14 08:22:09;;;;;;;6.50;5.40;;;27.30;56.70;;;;;;629879;226;26804;-70
2022/08/14 08:24:37;;;;;;;5.55;4.97;;;27.40;56.50;;;;;;627333;227;26574;-70
2022/08/14 08:27:04;;;;;;;8.65;5.97;;;27.50;56.40;;;;;;626146;226;26628;-70
2022/08/14 08:29:32;;;;;;;7.93;6.03;;;27.70;55.70;;;;;;630250;226;26534;-70
2022/08/14 08:32:00;;;;;;;6.12;5.53;;;27.80;56.10;;;;;;612044;232;26566;-70
2022/08/14 08:34:28;;;;;;;6.45;5.72;;;27.80;55.20;;;;;;615910;232;26649;-70
2022/08/14 08:36:55;;;;;;;6.75;6.10;;;28.00;55.40;;;;;;630399;225;26624;-70
2022/08/14 08:39:23;;;;;;;6.55;5.95;;;28.00;55.30;;;;;;626082;227;26792;-70
2022/08/14 08:41:50;;;;;;;5.30;4.90;;;28.10;54.60;;;;;;609223;235;26551;-70
2022/08/14 08:44:17;;;;;;;4.97;4.57;;;28.20;54.80;;;;;;625357;226;26854;-70
2022/08/14 08:46:46;;;;;;;5.93;5.43;;;28.40;54.50;;;;;;625449;230;26545;-70
2022/08/14 08:49:11;;;;;;;6.07;5.57;;;28.40;54.20;;;;;;625659;230;26531;-70
2022/08/14 08:51:39;;;;;;;6.18;5.65;;;28.40;54.40;;;;;;633080;226;26524;-70
2022/08/14 08:54:09;;;;;;;6.10;5.55;;;28.50;54.20;;;;;;626599;227;26556;-70
2022/08/14 08:56:39;;;;;;;6.55;5.55;;;28.50;53.60;;;;;;627091;228;26577;-70
2022/08/14 08:59:18;;;;;;;5.80;5.28;;;28.50;53.30;;;;;;625111;230;26757;-70
2022/08/14 09:01:51;;;;;;;6.22;5.62;;;28.50;53.50;;;;;;624931;230;26809;-70
2022/08/14 09:04:20;;;;;;;6.60;5.45;;;28.50;53.20;;;;;;603816;234;26635;-70
2022/08/14 09:06:49;;;;;;;7.03;5.35;;;28.50;53.20;;;;;;629336;227;26542;-70
2022/08/14 09:09:17;;;;;;;6.55;6.05;;;28.50;52.90;;;;;;624759;230;26620;-70
2022/08/14 09:11:45;;;;;;;6.03;5.50;;;28.50;53.00;;;;;;611889;234;26554;-70
2022/08/14 09:14:12;;;;;;;5.68;5.28;;;28.50;53.00;;;;;;618161;231;26738;-70
2022/08/14 09:16:39;;;;;;;9.13;5.05;;;28.50;52.70;;;;;;612434;234;26613;-70
2022/08/14 09:19:06;;;;;;;5.53;5.12;;;28.60;52.60;;;;;;609509;234;27307;-71
2022/08/14 09:21:34;;;;;;;6.12;5.37;;;28.70;52.60;;;;;;626848;225;26582;-71
2022/08/14 09:24:01;;;;;;;5.32;4.95;;;28.70;52.10;;;;;;629644;225;26810;-70
2022/08/14 09:26:28;;;;;;;4.62;4.05;;;28.80;52.40;;;;;;634392;225;26533;-70
2022/08/14 09:28:55;;;;;;;5.60;5.10;;;28.80;52.20;;;;;;628143;226;26812;-70
2022/08/14 09:31:22;;;;;;;5.60;5.10;;;28.70;52.10;;;;;;628782;226;26581;-70
2022/08/14 09:33:58;;;;;;;4.65;4.35;;;28.90;52.10;;;;;;631204;227;26794;-70
2022/08/14 09:36:45;;;;;;;5.47;4.82;;;29.00;51.90;;;;;;626211;226;26596;-74
2022/08/14 09:39:17;;;;;;;3.35;3.15;;;29.00;51.50;;;;;;609544;234;26574;-71
2022/08/14 09:42:04;;;;;;;4.93;3.42;;;29.10;51.30;;;;;;612431;231;26568;-70
2022/08/14 09:44:44;;;;;;;5.78;5.15;;;29.20;50.90;;;;;;628836;226;26632;-70
2022/08/14 09:47:11;;;;;;;4.28;3.97;;;29.20;51.00;;;;;;630169;227;26956;-70
2022/08/14 09:49:38;;;;;;;4.97;4.57;;;29.40;50.70;;;;;;627081;225;26571;-70
2022/08/14 09:52:09;;;;;;;7.15;4.80;;;29.30;50.00;;;;;;627833;226;26795;-70
2022/08/14 09:54:38;;;;;;;5.22;4.80;;;29.40;49.70;;;;;;636040;222;26621;-69
2022/08/14 09:57:06;;;;;;;4.68;4.20;;;29.50;49.40;;;;;;626701;226;26592;-69
2022/08/14 09:59:39;;;;;;;5.00;3.92;;;29.60;49.00;;;;;;630396;227;26548;-70
2022/08/14 10:02:06;;;;;;;4.62;4.22;;;29.80;49.20;;;;;;626764;225;26545;-70
2022/08/14 10:04:33;;;;;;;4.35;4.05;;;29.90;48.50;;;;;;632701;227;26831;-70
2022/08/14 10:07:00;;;;;;;3.80;3.60;;;30.10;48.40;;;;;;629763;226;26550;-70
2022/08/14 10:09:28;;;;;;;3.80;3.50;;;30.20;47.90;;;;;;629897;228;26809;-70
2022/08/14 10:11:56;;;;;;;4.37;4.03;;;30.20;47.90;;;;;;629107;226;26583;-70
2022/08/14 10:14:24;;;;;;;4.93;4.40;;;30.70;47.00;;;;;;628119;226;26546;-70
2022/08/14 10:16:53;;;;;;;4.68;4.18;;;30.80;46.60;;;;;;631814;226;26593;-69
2022/08/14 10:19:21;;;;;;;4.47;3.90;;;30.80;46.60;;;;;;629407;228;26556;-69
2022/08/14 10:22:00;;;;;;;4.37;3.83;;;30.80;46.30;;;;;;633694;227;26548;-70
2022/08/14 10:24:28;;;;;;;5.15;3.83;;;30.80;46.30;;;;;;624396;226;26820;-68
2022/08/14 10:26:55;;;;;;;3.33;3.12;;;30.70;46.10;;;;;;607670;234;26536;-68
2022/08/14 10:29:32;;;;;;;6.90;3.58;;;30.80;46.40;;;;;;618894;231;26849;-68
2022/08/14 10:31:59;;;;;;;4.07;3.67;;;30.80;46.30;;;;;;633347;227;26558;-68
2022/08/14 10:34:34;;;;;;;3.35;3.15;;;30.70;46.00;;;;;;626686;228;26849;-68
2022/08/14 10:37:02;;;;;;;4.12;3.55;;;30.70;45.30;;;;;;628253;226;26607;-68
2022/08/14 10:39:30;;;;;;;4.12;3.72;;;30.60;45.20;;;;;;633061;226;26575;-69
2022/08/14 10:42:03;;;;;;;3.70;3.40;;;30.70;45.30;;;;;;633787;225;26826;-69
2022/08/14 10:44:29;;;;;;;3.95;3.60;;;30.70;44.70;;;;;;627109;227;26818;-69
2022/08/14 10:46:57;;;;;;;4.03;3.58;;;30.60;44.50;;;;;;629034;227;26617;-69
2022/08/14 10:49:22;;;;;;;4.15;3.90;;;30.60;45.10;;;;;;629202;228;26552;-69
2022/08/14 10:51:58;;;;;;;3.78;3.53;;;30.60;45.30;;;;;;626054;225;26547;-69
2022/08/14 10:54:22;;;;;;;3.80;3.50;;;30.60;45.30;;;;;;631607;227;26605;-70
2022/08/14 10:56:50;;;;;;;6.50;3.70;;;30.70;45.40;;;;;;630623;226;26580;-69
2022/08/14 10:59:17;;;;;;;4.00;3.80;;;30.70;45.50;;;;;;635333;226;26533;-70
2022/08/14 11:01:44;;;;;;;4.28;3.87;;;30.80;45.40;;;;;;627553;226;26823;-70
2022/08/14 11:04:19;;;;;;;4.10;3.25;;;30.90;45.30;;;;;;631505;227;26557;-70
2022/08/14 11:06:51;;;;;;;4.05;3.70;;;30.90;45.20;;;;;;625245;227;26538;-70
2022/08/14 11:09:18;;;;;;;11.77;5.25;;;30.90;44.60;;;;;;609096;234;26773;-70
2022/08/14 11:11:48;;;;;;;81.65;18.50;;;30.90;43.90;;;;;;639869;224;26533;-70
2022/08/14 11:14:13;;;;;;;90.72;23.20;;;30.80;44.50;;;;;;613322;233;26833;-68
2022/08/14 11:16:40;;;;;;;74.28;19.58;;;30.80;44.60;;;;;;601512;239;26563;-68
2022/08/14 11:19:07;;;;;;;53.40;16.30;;;30.80;44.50;;;;;;625219;230;26584;-68
2022/08/14 11:21:34;;;;;;;45.45;13.02;;;30.80;44.40;;;;;;625499;224;26537;-69
2022/08/14 11:24:03;;;;;;;14.75;6.30;;;30.70;45.50;;;;;;625951;225;26600;-68
2022/08/14 11:26:33;;;;;;;4.62;3.70;;;30.70;45.60;;;;;;636350;225;26579;-69
2022/08/14 11:28:58;;;;;;;4.47;3.80;;;30.70;45.90;;;;;;629444;227;26822;-69
2022/08/14 11:31:25;;;;;;;5.50;3.80;;;30.80;44.70;;;;;;634596;225;26567;-69
2022/08/14 11:33:56;;;;;;;4.15;3.75;;;30.90;45.60;;;;;;627905;225;26812;-69
2022/08/14 11:36:21;;;;;;;6.30;4.00;;;30.90;45.20;;;;;;632133;227;26591;-69
2022/08/14 11:38:49;;;;;;;5.68;3.80;;;31.00;45.00;;;;;;627955;228;26505;-69
2022/08/14 11:41:16;;;;;;;3.80;3.50;;;31.00;44.60;;;;;;627487;224;26789;-69
2022/08/14 11:43:43;;;;;;;4.55;3.62;;;31.10;43.90;;;;;;624769;229;26567;-69
2022/08/14 11:46:12;;;;;;;5.30;3.62;;;31.10;43.40;;;;;;625348;230;26786;-69
2022/08/14 11:48:47;;;;;;;4.40;4.03;;;31.10;43.50;;;;;;605394;235;26573;-69
2022/08/14 11:51:19;;;;;;;5.20;3.35;;;31.00;43.10;;;;;;612800;234;26813;-69
2022/08/14 11:53:42;;;;;;;4.12;3.78;;;31.00;42.70;;;;;;614125;234;26573;-69
2022/08/14 11:56:08;;;;;;;3.62;3.42;;;31.00;42.50;;;;;;613065;233;26975;-69
2022/08/14 11:58:35;;;;;;;4.15;3.85;;;31.00;41.50;;;;;;628981;225;26547;-70
2022/08/14 12:01:05;;;;;;;4.12;3.12;;;30.90;42.40;;;;;;630263;226;26844;-70
2022/08/14 12:03:35;;;;;;;3.67;3.37;;;30.90;42.90;;;;;;630206;227;26570;-70
2022/08/14 12:06:04;;;;;;;4.43;3.83;;;30.90;42.50;;;;;;634309;226;26585;-70
2022/08/14 12:08:32;;;;;;;4.18;3.75;;;31.00;41.90;;;;;;629232;227;26603;-70
2022/08/14 12:10:59;;;;;;;7.25;4.15;;;31.00;41.90;;;;;;630022;227;26509;-71
2022/08/14 12:13:30;;;;;;;3.95;3.65;;;31.10;42.30;;;;;;625825;230;26612;-74
2022/08/14 12:16:04;;;;;;;5.10;3.70;;;31.30;43.00;;;;;;613727;233;26601;-70
2022/08/14 12:18:40;;;;;;;5.40;4.03;;;31.30;43.00;;;;;;612572;233;26643;-69
2022/08/14 12:21:16;;;;;;;6.03;4.60;;;31.40;42.50;;;;;;613247;234;26619;-69
2022/08/14 12:23:43;;;;;;;4.85;3.97;;;31.20;42.10;;;;;;613340;234;26594;-69
2022/08/14 12:26:10;;;;;;;5.60;4.07;;;31.20;42.20;;;;;;610591;233;26837;-69
2022/08/14 12:28:38;;;;;;;4.75;4.30;;;31.30;42.80;;;;;;632046;226;26547;-69
2022/08/14 12:31:15;;;;;;;6.20;4.18;;;31.50;42.60;;;;;;629510;227;26601;-69
2022/08/14 12:33:40;;;;;;;3.42;3.22;;;31.70;42.50;;;;;;634683;226;26617;-70
2022/08/14 12:36:08;;;;;;;6.18;3.65;;;32.20;41.30;;;;;;627498;225;26541;-70
2022/08/14 12:38:37;;;;;;;5.03;4.62;;;32.20;41.30;;;;;;630443;227;26592;-70
2022/08/14 12:41:05;;;;;;;3.92;3.62;;;32.50;41.30;;;;;;624806;230;26541;-70
2022/08/14 12:43:31;;;;;;;3.80;3.50;;;32.70;41.30;;;;;;624986;230;26626;-70
2022/08/14 12:45:58;;;;;;;4.40;4.00;;;33.10;41.00;;;;;;624794;230;26809;-70
2022/08/14 12:48:27;;;;;;;4.22;4.00;;;33.60;40.80;;;;;;625329;230;26597;-69
2022/08/14 12:50:52;;;;;;;5.10;3.90;;;34.20;40.00;;;;;;607707;234;26825;-69
2022/08/14 12:53:19;;;;;;;3.97;3.62;;;34.70;39.70;;;;;;617167;232;26848;-69
2022/08/14 12:55:47;;;;;;;5.03;3.60;;;35.20;38.50;;;;;;626185;225;26579;-69
2022/08/14 12:58:14;;;;;;;4.07;3.67;;;35.20;37.90;;;;;;635919;225;26796;-69
2022/08/14 13:00:49;;;;;;;4.12;3.83;;;35.50;37.40;;;;;;625147;230;26811;-69
2022/08/14 13:03:23;;;;;;;5.45;3.83;;;35.60;37.40;;;;;;608255;235;26582;-69
2022/08/14 13:05:51;;;;;;;3.67;3.47;;;36.20;36.40;;;;;;613689;233;26590;-70
2022/08/14 13:08:18;;;;;;;4.00;3.80;;;36.10;36.20;;;;;;614211;233;26608;-70